Hispaniola — EB4769 — position and weather

sailwx.info

Track history (hours):
 
Tides and Currents Weather Stations Pressure Air Temp Water Temp Dewpoint Dewpoint Depression Visibility Wind Speed Wind Dir Waves Ship Positions

Hispaniola

Last reported at 2017-Sep-21 05:58 UTC. Time now 2017-Oct-22 13:26 UTC.
Position N 40°46' E 002°24'.
Warning: this ship's position is 31 days out of date.

Length 12 m.

Type: Sailing vessel. MMSI: 224025750.

Date/timePositionNaut miles runAvg speedWind from/ knotsBaromVisibWave heightAir tempDewpointWater temp
2017-Sep-21 05:58N 40°46' E 002°24'5 6.9
2017-Sep-21 05:15N 40°41' E 002°23'2 6.9
2017-Sep-21 04:57N 40°39' E 002°22'3 6.9
2017-Sep-21 04:30N 40°36' E 002°22'3 6.8
2017-Sep-21 04:00N 40°32' E 002°21'3 6.7
2017-Sep-21 03:30N 40°29' E 002°21'4 6.6
2017-Sep-21 02:58N 40°25' E 002°21'3 6.4
2017-Sep-21 02:28N 40°22' E 002°21'3 6.2
2017-Sep-21 02:00N 40°19' E 002°21'3 5.8
2017-Sep-21 01:30N 40°16' E 002°21'3 5.5
2017-Sep-21 01:00N 40°14' E 002°21'3 5.5
2017-Sep-21 00:29N 40°11' E 002°20'3 5.4
2017-Sep-21 00:00N 40°08' E 002°19'3 5.3
2017-Sep-20 23:30N 40°06' E 002°18'3 5.4
2017-Sep-20 23:00N 40°03' E 002°18'3 5.5
2017-Sep-20 22:29N 40°00' E 002°17'3 5.6
2017-Sep-20 22:00N 39°58' E 002°17'3 5.9
2017-Sep-20 21:31N 39°55' E 002°17'3 6.0
2017-Sep-20 21:00N 39°52' E 002°16'3 5.7
2017-Sep-20 20:29N 39°49' E 002°16'4 5.8
2017-Sep-20 19:52N 39°45' E 002°16'8 5.6
2017-Sep-20 18:31N 39°38' E 002°15'1 6.1
2017-Sep-20 18:24N 39°37' E 002°14'3 5.7
2017-Sep-20 17:56N 39°35' E 002°12'13 6.0
2017-Sep-20 15:43N 39°24' E 002°02'3 7.0
2017-Sep-20 15:19N 39°21' E 002°01'3 7.3
2017-Sep-20 14:58N 39°19' E 001°59'6 6.2
2017-Sep-20 13:59N 39°14' E 001°54'27 5.4
2017-Sep-20 09:03N 38°54' E 001°31'0 5.4
2017-Sep-20 09:00N 38°54' E 001°31'3 5.8
2017-Sep-20 08:30N 38°52' E 001°29'  
Track history (hours):
 
Tides and Currents Weather Stations Pressure Air Temp Water Temp Dewpoint Dewpoint Depression Visibility Wind Speed Wind Dir Waves Ship Positions

Hispaniola

Last reported at 2017-Sep-21 05:58 UTC. Time now 2017-Oct-22 13:26 UTC.
Position N 40°46' E 002°24'.
Warning: this ship's position is 31 days out of date.

Length 12 m.

Type: Sailing vessel. MMSI: 224025750.

Date/timePositionNaut miles runAvg speedWind from/ knotsBaromVisibWave heightAir tempDewpointWater temp
2017-Sep-21 05:58N 40°46' E 002°24'5 6.9
2017-Sep-21 05:15N 40°41' E 002°23'2 6.9
2017-Sep-21 04:57N 40°39' E 002°22'3 6.9
2017-Sep-21 04:30N 40°36' E 002°22'3 6.8
2017-Sep-21 04:00N 40°32' E 002°21'3 6.7
2017-Sep-21 03:30N 40°29' E 002°21'4 6.6
2017-Sep-21 02:58N 40°25' E 002°21'3 6.4
2017-Sep-21 02:28N 40°22' E 002°21'3 6.2
2017-Sep-21 02:00N 40°19' E 002°21'3 5.8
2017-Sep-21 01:30N 40°16' E 002°21'3 5.5
2017-Sep-21 01:00N 40°14' E 002°21'3 5.5
2017-Sep-21 00:29N 40°11' E 002°20'3 5.4
2017-Sep-21 00:00N 40°08' E 002°19'3 5.3
2017-Sep-20 23:30N 40°06' E 002°18'3 5.4
2017-Sep-20 23:00N 40°03' E 002°18'3 5.5
2017-Sep-20 22:29N 40°00' E 002°17'3 5.6
2017-Sep-20 22:00N 39°58' E 002°17'3 5.9
2017-Sep-20 21:31N 39°55' E 002°17'3 6.0
2017-Sep-20 21:00N 39°52' E 002°16'3 5.7
2017-Sep-20 20:29N 39°49' E 002°16'4 5.8
2017-Sep-20 19:52N 39°45' E 002°16'8 5.6
2017-Sep-20 18:31N 39°38' E 002°15'1 6.1
2017-Sep-20 18:24N 39°37' E 002°14'3 5.7
2017-Sep-20 17:56N 39°35' E 002°12'13 6.0
2017-Sep-20 15:43N 39°24' E 002°02'3 7.0
2017-Sep-20 15:19N 39°21' E 002°01'3 7.3
2017-Sep-20 14:58N 39°19' E 001°59'6 6.2
2017-Sep-20 13:59N 39°14' E 001°54'27 5.4
2017-Sep-20 09:03N 38°54' E 001°31'0 5.4
2017-Sep-20 09:00N 38°54' E 001°31'3 5.8
2017-Sep-20 08:30N 38°52' E 001°29'  

Dump ship's entire track history